Time;durP1;ratioP1;P1;durP2;ratioP2;P2;SDS_P1;SDS_P2;PMS_P1;PMS_P2;Temp;Humidity;BMP_temperature;BMP_pressure;BME280_temperature;BME280_humidity;BME280_pressure;Samples;Min_cycle;Max_cycle;Signal;HPM_P1;HPM_P2
2022/11/11 00:01:22;;;;;;;;;;;;;;;8.40;71.08;102186.31;5051935;28;20323;-31
2022/11/11 00:03:47;;;;;;;;;;;;;;;8.39;70.98;102195.06;5025071;28;19978;-32
2022/11/11 00:06:13;;;;;;;;;;;;;;;8.37;71.06;102190.63;5029797;28;19980;-32
2022/11/11 00:08:38;;;;;;;;;;;;;;;8.36;71.14;102194.13;5030303;28;19975;-31
2022/11/11 00:11:04;;;;;;;;;;;;;;;8.33;71.10;102190.53;5057180;28;19931;-33
2022/11/11 00:13:29;;;;;;;;;;;;;;;8.32;71.11;102186.16;5054921;28;19917;-32
2022/11/11 00:15:55;;;;;;;;;;;;;;;8.32;71.15;102193.13;5060312;28;20293;-33
2022/11/11 00:27:04;;;;;;;;;;;;;;;8.24;71.14;102192.06;5053577;28;19927;-33
2022/11/11 00:29:29;;;;;;;;;;;;;;;8.22;71.06;102186.75;5036117;28;20322;-33
2022/11/11 00:34:38;;;;;;;;;;;;;;;8.17;71.04;102181.38;5042999;28;19924;-33
2022/11/11 00:37:03;;;;;;;;;;;;;;;8.16;71.11;102176.97;5051965;28;19928;-33
2022/11/11 00:39:29;;;;;;;;;;;;;;;8.16;70.95;102181.34;5032056;28;20025;-33
2022/11/11 00:41:54;;;;;;;;;;;;;;;8.15;71.14;102182.19;5031938;28;19965;-33
2022/11/11 00:44:19;;;;;;;;;;;;;;;8.13;71.05;102178.66;5054393;28;20317;-33
2022/11/11 00:52:12;;;;;;;;;;;;;;;8.05;71.14;102173.19;5045955;28;19928;-32
2022/11/11 00:54:37;;;;;;;;;;;;;;;8.03;71.00;102180.13;5054243;28;20306;-33
2022/11/11 00:57:03;;;;;;;;;;;;;;;8.01;71.03;102193.25;5053993;28;19923;-33
2022/11/11 00:59:28;;;;;;;;;;;;;;;8.00;70.95;102195.84;5035970;28;19917;-32
2022/11/11 01:01:53;;;;;;;;;;;;;;;7.97;71.21;102199.25;5047566;28;19921;-31
2022/11/11 01:04:18;;;;;;;;;;;;;;;7.97;71.13;102201.88;5055695;28;20008;-32
2022/11/11 01:06:43;;;;;;;;;;;;;;;7.94;71.23;102197.44;5044920;28;20409;-33
2022/11/11 01:09:09;;;;;;;;;;;;;;;7.93;71.37;102189.50;5034509;28;19921;-32
2022/11/11 01:11:34;;;;;;;;;;;;;;;7.92;71.22;102193.00;5041915;28;19944;-33
2022/11/11 01:14:00;;;;;;;;;;;;;;;7.91;71.25;102193.84;5040755;28;19917;-33
2022/11/11 01:16:25;;;;;;;;;;;;;;;7.90;71.13;102199.97;5052243;28;19921;-33
2022/11/11 01:18:51;;;;;;;;;;;;;;;7.88;71.28;102196.41;5051418;28;20000;-33
2022/11/11 01:21:20;;;;;;;;;;;;;;;7.86;71.15;102192.81;5047290;28;19956;-32
2022/11/11 01:23:47;;;;;;;;;;;;;;;7.86;71.10;102190.19;5055247;28;19986;-32
2022/11/11 01:26:15;;;;;;;;;;;;;;;7.83;71.03;102185.75;5057187;28;19944;-32
2022/11/11 01:28:40;;;;;;;;;;;;;;;7.82;71.26;102202.38;5055178;28;20286;-32
2022/11/11 01:31:07;;;;;;;;;;;;;;;7.79;71.23;102202.28;5056446;28;19921;-31
2022/11/11 01:33:32;;;;;;;;;;;;;;;7.77;71.18;102197.00;5028907;28;19936;-31
2022/11/11 01:36:03;;;;;;;;;;;;;;;7.75;71.32;102193.44;5039663;28;19940;-31
2022/11/11 01:38:29;;;;;;;;;;;;;;;7.75;71.28;102201.31;5047985;28;19917;-31
2022/11/11 01:40:54;;;;;;;;;;;;;;;7.72;71.48;102201.25;5040345;28;20473;-31
2022/11/11 01:43:21;;;;;;;;;;;;;;;7.70;71.47;102195.03;5043789;28;20437;-31
2022/11/11 01:45:46;;;;;;;;;;;;;;;7.69;71.54;102203.78;5045113;28;19921;-31
2022/11/11 01:50:57;;;;;;;;;;;;;;;7.66;71.80;102193.19;5034138;28;19927;-31
2022/11/11 01:53:22;;;;;;;;;;;;;;;7.66;71.48;102198.44;5033536;28;19917;-31
2022/11/11 01:55:47;;;;;;;;;;;;;;;7.64;71.62;102201.00;5053789;28;19917;-33
2022/11/11 01:58:13;;;;;;;;;;;;;;;7.63;71.55;102195.72;5037046;28;19925;-33
2022/11/11 02:00:38;;;;;;;;;;;;;;;7.60;71.51;102187.78;5034707;28;19962;-33
2022/11/11 02:03:04;;;;;;;;;;;;;;;7.57;71.75;102196.47;5037845;28;19917;-33
2022/11/11 02:05:42;;;;;;;;;;;;;;;7.57;71.57;102192.09;5055695;28;19913;-33
2022/11/11 02:08:31;;;;;;;;;;;;;;;7.56;71.71;102190.31;5036976;28;19999;-33
2022/11/11 02:10:56;;;;;;;;;;;;;;;7.55;71.75;102190.25;5046542;28;20398;-33
2022/11/11 02:16:05;;;;;;;;;;;;;;;7.51;71.60;102194.56;5053906;28;20419;-33
2022/11/11 02:18:31;;;;;;;;;;;;;;;7.51;71.71;102193.66;5054514;28;19916;-33
2022/11/11 02:20:56;;;;;;;;;;;;;;;7.50;71.81;102190.13;5028296;28;19921;-32
2022/11/11 02:23:24;;;;;;;;;;;;;;;7.49;71.77;102188.34;5049069;28;20294;-32
2022/11/11 02:25:49;;;;;;;;;;;;;;;7.49;71.77;102196.22;5029557;28;20321;-32
2022/11/11 02:28:15;;;;;;;;;;;;;;;7.47;71.59;102200.53;5031618;28;20374;-32
2022/11/11 02:30:40;;;;;;;;;;;;;;;7.46;71.79;102196.13;5041357;28;20330;-32
2022/11/11 02:33:05;;;;;;;;;;;;;;;7.46;71.92;102190.03;5051992;28;19957;-32
2022/11/11 02:35:30;;;;;;;;;;;;;;;7.45;71.66;102194.38;5050309;28;19986;-32
2022/11/11 02:37:56;;;;;;;;;;;;;;;7.43;71.88;102198.66;5050680;28;19991;-32
2022/11/11 02:40:29;;;;;;;;;;;;;;;7.42;71.75;102200.44;5034244;28;19913;-32
2022/11/11 02:42:54;;;;;;;;;;;;;;;7.42;71.68;102204.78;5047735;28;19928;-32
2022/11/11 02:45:20;;;;;;;;;;;;;;;7.39;71.90;102207.31;5052706;28;20282;-32
2022/11/11 02:47:45;;;;;;;;;;;;;;;7.40;71.84;102214.38;5043024;28;19963;-32
2022/11/11 02:50:10;;;;;;;;;;;;;;;7.38;71.66;102210.78;5050150;28;19921;-32
2022/11/11 02:52:35;;;;;;;;;;;;;;;7.36;71.76;102212.47;5048386;28;19940;-32
2022/11/11 02:55:01;;;;;;;;;;;;;;;7.34;71.77;102215.06;5052021;28;19920;-32
2022/11/11 02:57:28;;;;;;;;;;;;;;;7.34;71.92;102215.06;5047398;28;20310;-32
2022/11/11 02:59:54;;;;;;;;;;;;;;;7.33;71.69;102210.66;5014723;28;19921;-32
2022/11/11 03:02:20;;;;;;;;;;;;;;;7.34;71.57;102211.56;5031739;28;19917;-32
2022/11/11 03:04:45;;;;;;;;;;;;;;;7.32;71.43;102215.03;5048059;28;19918;-33
2022/11/11 03:07:11;;;;;;;;;;;;;;;7.31;71.83;102225.47;5034586;28;19920;-32
2022/11/11 03:09:36;;;;;;;;;;;;;;;7.28;71.82;102215.78;5052880;28;19943;-32
2022/11/11 03:12:01;;;;;;;;;;;;;;;7.27;71.65;102227.09;5052447;28;19924;-32
2022/11/11 03:14:28;;;;;;;;;;;;;;;7.27;71.73;102226.22;5029287;28;20378;-32
2022/11/11 03:19:37;;;;;;;;;;;;;;;7.22;71.46;102225.19;5049698;28;20285;-32
2022/11/11 03:22:02;;;;;;;;;;;;;;;7.19;71.60;102226.00;5051596;28;19920;-32
2022/11/11 03:25:36;;;;;;;;;;;;;;;7.18;71.42;102234.72;5032192;28;19991;-32
2022/11/11 03:27:13;;;;;;;;;;;;;;;7.15;71.39;102232.91;5048880;28;19919;-32
2022/11/11 03:29:41;;;;;;;;;;;;;;;7.15;71.32;102240.78;5049233;28;19924;-32
2022/11/11 03:32:07;;;;;;;;;;;;;;;7.14;71.50;102243.34;5053088;28;19921;-32
2022/11/11 03:34:33;;;;;;;;;;;;;;;7.12;71.45;102247.63;5048631;28;19932;-32
2022/11/11 03:39:43;;;;;;;;;;;;;;;7.08;71.50;102251.00;5047117;28;19931;-32
2022/11/11 03:42:08;;;;;;;;;;;;;;;7.08;71.53;102248.38;5051995;28;20015;-32
2022/11/11 03:44:33;;;;;;;;;;;;;;;7.04;71.52;102242.16;5055046;28;20384;-32
2022/11/11 03:46:59;;;;;;;;;;;;;;;7.02;71.32;102243.84;5054000;28;19917;-32
2022/11/11 03:49:24;;;;;;;;;;;;;;;7.01;71.30;102257.81;5046457;28;19920;-32
2022/11/11 03:51:49;;;;;;;;;;;;;;;6.96;71.25;102236.66;5027333;28;19921;-32
2022/11/11 03:54:14;;;;;;;;;;;;;;;6.95;71.27;102240.16;5053425;28;19964;-32
2022/11/11 03:56:41;;;;;;;;;;;;;;;6.92;71.35;102232.19;5049117;28;19944;-32
2022/11/11 03:59:07;;;;;;;;;;;;;;;6.91;71.88;102236.53;5038483;28;19947;-32
2022/11/11 04:12:28;;;;;;;;;;;;;;;6.75;72.03;102224.69;5052238;28;20455;-32
2022/11/11 04:17:37;;;;;;;;;;;;;;;6.73;72.59;102215.84;5045342;28;20059;-32
2022/11/11 04:22:52;;;;;;;;;;;;;;;6.72;72.30;102214.09;5049576;28;19940;-33
2022/11/11 04:30:45;;;;;;;;;;;;;;;6.76;72.90;102215.97;5050350;28;19932;-33
2022/11/11 04:33:10;;;;;;;;;;;;;;;6.78;72.69;102218.63;5052329;28;19917;-32
2022/11/11 04:35:36;;;;;;;;;;;;;;;6.78;72.02;102214.28;5034960;28;20156;-33
2022/11/11 04:41:03;;;;;;;;;;;;;;;6.79;72.49;102212.53;5050674;28;19966;-33
2022/11/11 04:43:29;;;;;;;;;;;;;;;6.79;71.97;102213.44;5028771;28;20441;-33
2022/11/11 04:45:57;;;;;;;;;;;;;;;6.80;72.34;102217.84;5048328;28;20020;-33
2022/11/11 04:48:23;;;;;;;;;;;;;;;6.78;72.22;102206.44;5053639;28;19948;-33
2022/11/11 04:50:48;;;;;;;;;;;;;;;6.79;72.30;102205.56;5053427;28;20263;-32
2022/11/11 04:53:13;;;;;;;;;;;;;;;6.78;72.06;102209.03;5052775;28;19952;-32
2022/11/11 04:58:24;;;;;;;;;;;;;;;6.75;71.84;102208.94;5051934;28;19923;-33
2022/11/11 05:00:49;;;;;;;;;;;;;;;6.77;71.95;102207.25;5053912;28;19943;-33
2022/11/11 05:03:15;;;;;;;;;;;;;;;6.74;72.35;102199.28;5052274;28;19917;-33
2022/11/11 05:09:14;;;;;;;;;;;;;;;6.72;72.19;102198.34;5046464;28;19970;-33
2022/11/11 05:11:21;;;;;;;;;;;;;;;6.69;72.12;102190.38;5036367;28;19917;-32
2022/11/11 05:22:08;;;;;;;;;;;;;;;6.65;72.05;102197.28;5041611;28;19932;-31
2022/11/11 05:27:19;;;;;;;;;;;;;;;6.60;72.31;102205.84;5051630;28;19924;-31
2022/11/11 05:29:46;;;;;;;;;;;;;;;6.59;72.33;102199.69;5052504;28;19928;-32
2022/11/11 05:32:14;;;;;;;;;;;;;;;6.58;72.44;102194.41;5049043;28;19927;-33
2022/11/11 05:34:39;;;;;;;;;;;;;;;6.59;72.27;102190.94;5044321;28;19927;-32
2022/11/11 05:37:05;;;;;;;;;;;;;;;6.56;72.23;102180.38;5052285;28;20007;-32
2022/11/11 05:39:30;;;;;;;;;;;;;;;6.54;72.42;102175.94;5045989;28;20015;-33
2022/11/11 05:41:55;;;;;;;;;;;;;;;6.54;72.67;102175.94;5034588;28;19948;-33
2022/11/11 05:44:20;;;;;;;;;;;;;;;6.54;72.54;102178.56;5045151;28;19929;-33
2022/11/11 05:46:46;;;;;;;;;;;;;;;6.54;72.10;102178.56;5051719;28;19916;-33
2022/11/11 05:49:14;;;;;;;;;;;;;;;6.53;72.29;102176.78;5049136;28;21287;-32
2022/11/11 05:51:40;;;;;;;;;;;;;;;6.53;72.38;102176.78;5049060;28;19921;-32
2022/11/11 05:54:05;;;;;;;;;;;;;;;6.51;72.70;102175.84;5051097;28;19924;-33
2022/11/11 05:56:30;;;;;;;;;;;;;;;6.52;72.49;102177.63;5051775;28;19925;-32
2022/11/11 05:58:57;;;;;;;;;;;;;;;6.51;72.31;102180.22;5030152;28;19924;-33
2022/11/11 06:01:22;;;;;;;;;;;;;;;6.51;72.58;102185.44;5033547;28;19948;-33
2022/11/11 06:03:48;;;;;;;;;;;;;;;6.51;72.78;102182.81;5045650;28;20370;-33
2022/11/11 06:06:13;;;;;;;;;;;;;;;6.49;72.62;102185.41;5031012;28;19923;-33
2022/11/11 06:08:39;;;;;;;;;;;;;;;6.50;72.64;102181.06;5047226;28;19924;-32
2022/11/11 06:11:04;;;;;;;;;;;;;;;6.49;72.76;102190.63;5051490;28;19975;-32
2022/11/11 06:13:29;;;;;;;;;;;;;;;6.48;72.67;102191.50;5047589;28;19917;-32
2022/11/11 06:15:55;;;;;;;;;;;;;;;6.49;72.60;102195.88;5049603;28;19921;-33
2022/11/11 06:18:20;;;;;;;;;;;;;;;6.49;72.73;102193.25;5046855;28;19928;-31
2022/11/11 06:20:45;;;;;;;;;;;;;;;6.48;72.93;102201.97;5047121;28;20285;-32
2022/11/11 06:23:10;;;;;;;;;;;;;;;6.47;72.73;102208.03;5049249;28;19939;-31
2022/11/11 06:28:19;;;;;;;;;;;;;;;6.49;72.62;102215.94;5033005;28;19986;-32
2022/11/11 06:30:45;;;;;;;;;;;;;;;6.48;72.87;102220.31;5031488;28;19924;-32
2022/11/11 06:33:10;;;;;;;;;;;;;;;6.48;72.97;102219.41;5052757;28;19917;-31
2022/11/11 06:35:36;;;;;;;;;;;;;;;6.48;72.72;102225.56;5043553;28;19917;-31
2022/11/11 06:38:02;;;;;;;;;;;;;;;6.49;72.95;102226.44;5049007;28;19921;-31
2022/11/11 06:40:27;;;;;;;;;;;;;;;6.48;72.92;102229.91;5051003;28;19920;-33
2022/11/11 06:42:53;;;;;;;;;;;;;;;6.48;72.93;102230.81;5052073;28;19916;-33
2022/11/11 06:45:18;;;;;;;;;;;;;;;6.48;72.80;102236.06;5043912;28;20370;-31
2022/11/11 06:47:47;;;;;;;;;;;;;;;6.48;72.72;102246.53;5043241;28;19921;-31
2022/11/11 06:50:12;;;;;;;;;;;;;;;6.47;72.86;102249.97;5039253;28;19921;-31
2022/11/11 06:52:37;;;;;;;;;;;;;;;6.48;72.64;102251.78;5051772;28;20241;-32
2022/11/11 06:55:02;;;;;;;;;;;;;;;6.49;73.56;102257.91;5051874;28;19956;-31
2022/11/11 06:57:28;;;;;;;;;;;;;;;6.47;73.21;102252.59;5030714;28;19917;-31
2022/11/11 06:59:53;;;;;;;;;;;;;;;6.49;73.11;102250.94;5027037;28;19921;-31
2022/11/11 07:02:18;;;;;;;;;;;;;;;6.49;72.82;102248.31;5047216;28;19916;-31
2022/11/11 07:04:44;;;;;;;;;;;;;;;6.50;72.83;102255.31;5045023;28;19983;-31
2022/11/11 07:07:09;;;;;;;;;;;;;;;6.51;73.29;102258.84;5049531;28;19947;-33
2022/11/11 07:09:34;;;;;;;;;;;;;;;6.51;73.17;102258.84;5047777;28;19921;-32
2022/11/11 07:12:00;;;;;;;;;;;;;;;6.52;73.04;102272.00;5047847;28;19928;-33
2022/11/11 07:14:26;;;;;;;;;;;;;;;6.51;72.87;102270.22;5047400;28;19921;-33
2022/11/11 07:16:51;;;;;;;;;;;;;;;6.53;72.67;102272.88;5045924;28;19924;-32
2022/11/11 07:19:16;;;;;;;;;;;;;;;6.52;73.22;102274.63;5051217;28;19924;-33
2022/11/11 07:21:41;;;;;;;;;;;;;;;6.54;72.79;102280.81;5048994;28;19917;-33
2022/11/11 07:24:07;;;;;;;;;;;;;;;6.53;72.61;102286.91;5050046;28;20294;-33
2022/11/11 07:26:32;;;;;;;;;;;;;;;6.55;72.83;102273.84;5055275;28;19925;-33
2022/11/11 07:28:57;;;;;;;;;;;;;;;6.56;73.03;102285.22;5047496;28;19917;-34
2022/11/11 07:31:23;;;;;;;;;;;;;;;6.56;72.97;102288.72;5052055;28;19921;-33
2022/11/11 07:33:48;;;;;;;;;;;;;;;6.58;72.81;102296.63;5053051;28;19936;-34
2022/11/11 07:36:13;;;;;;;;;;;;;;;6.57;73.08;102289.63;5051972;28;19979;-34
2022/11/11 07:38:38;;;;;;;;;;;;;;;6.58;73.00;102294.00;5052439;28;19931;-34
2022/11/11 07:41:04;;;;;;;;;;;;;;;6.58;73.23;102299.25;5033743;28;20385;-34
2022/11/11 07:43:29;;;;;;;;;;;;;;;6.60;72.97;102297.59;5051553;28;20011;-34
2022/11/11 07:45:54;;;;;;;;;;;;;;;6.60;73.15;102298.47;5053934;28;20439;-34
2022/11/11 07:48:20;;;;;;;;;;;;;;;6.61;73.50;102302.00;5046946;28;19917;-34
2022/11/11 07:50:45;;;;;;;;;;;;;;;6.61;73.93;102300.28;5044348;28;19921;-33
2022/11/11 07:53:11;;;;;;;;;;;;;;;6.63;73.50;102297.66;5036481;28;19916;-33
2022/11/11 07:55:36;;;;;;;;;;;;;;;6.64;73.64;102302.09;5040609;28;20281;-33
2022/11/11 07:58:02;;;;;;;;;;;;;;;6.63;74.48;102311.69;5054970;28;19917;-32
2022/11/11 08:00:27;;;;;;;;;;;;;;;6.64;74.85;102317.84;5052029;28;19939;-32
2022/11/11 08:02:52;;;;;;;;;;;;;;;6.66;74.35;102327.53;5032061;28;19925;-32
2022/11/11 08:05:18;;;;;;;;;;;;;;;6.67;74.95;102320.56;5052370;28;19952;-33
2022/11/11 08:07:43;;;;;;;;;;;;;;;6.68;74.53;102317.97;5047237;28;19920;-31
2022/11/11 08:10:09;;;;;;;;;;;;;;;6.70;74.47;102318.03;5051053;28;19963;-31
2022/11/11 08:15:18;;;;;;;;;;;;;;;6.74;75.31;102322.53;5048934;28;19932;-31
2022/11/11 08:17:43;;;;;;;;;;;;;;;6.76;75.32;102315.63;5046944;28;19925;-31
2022/11/11 08:20:09;;;;;;;;;;;;;;;6.78;74.67;102321.81;5052279;28;19924;-31
2022/11/11 08:22:37;;;;;;;;;;;;;;;6.80;74.39;102320.13;5029667;28;19917;-31
2022/11/11 08:25:03;;;;;;;;;;;;;;;6.83;74.49;102327.19;5052399;28;20499;-31
2022/11/11 08:27:29;;;;;;;;;;;;;;;6.86;74.47;102334.25;5049676;28;19944;-31
2022/11/11 08:29:54;;;;;;;;;;;;;;;6.88;74.42;102328.25;5053903;28;19982;-31
2022/11/11 08:32:19;;;;;;;;;;;;;;;6.93;74.77;102325.75;5054219;28;19916;-31
2022/11/11 08:34:45;;;;;;;;;;;;;;;6.95;74.42;102324.09;5054846;28;19920;-31
2022/11/11 08:37:10;;;;;;;;;;;;;;;7.00;74.83;102324.25;5052698;28;20274;-30
2022/11/11 08:39:35;;;;;;;;;;;;;;;7.03;74.97;102319.97;5045691;28;20304;-31
2022/11/11 08:42:00;;;;;;;;;;;;;;;7.06;74.65;102316.56;5044628;28;19924;-31
2022/11/11 08:44:26;;;;;;;;;;;;;;;7.10;74.35;102312.31;5049415;28;19923;-31
2022/11/11 08:46:51;;;;;;;;;;;;;;;7.13;74.56;102320.25;5048819;28;19920;-31
2022/11/11 08:49:16;;;;;;;;;;;;;;;7.16;74.20;102315.13;5047790;28;19971;-31
2022/11/11 08:51:42;;;;;;;;;;;;;;;7.20;74.09;102322.25;5047835;28;20371;-31
2022/11/11 08:54:07;;;;;;;;;;;;;;;7.24;74.15;102316.25;5027310;28;19924;-31
2022/11/11 08:56:33;;;;;;;;;;;;;;;7.26;74.15;102319.81;5011369;28;19928;-31
2022/11/11 08:58:58;;;;;;;;;;;;;;;7.30;74.07;102329.56;5042698;28;20550;-31
2022/11/11 09:01:23;;;;;;;;;;;;;;;7.34;74.17;102324.41;5049576;28;19924;-31
2022/11/11 09:03:48;;;;;;;;;;;;;;;7.36;74.08;102330.59;5050110;28;19923;-31
2022/11/11 09:06:15;;;;;;;;;;;;;;;7.38;73.80;102327.19;5029667;28;19960;-33
2022/11/11 09:08:41;;;;;;;;;;;;;;;7.41;73.83;102321.13;5036298;28;20003;-33
2022/11/11 09:11:06;;;;;;;;;;;;;;;7.44;74.18;102319.47;5033851;28;19928;-33
2022/11/11 09:13:32;;;;;;;;;;;;;;;7.48;73.79;102317.88;5016396;28;19924;-33
2022/11/11 09:15:58;;;;;;;;;;;;;;;7.51;73.80;102317.97;5046954;28;20345;-32
2022/11/11 09:18:24;;;;;;;;;;;;;;;7.54;74.05;102320.66;5030643;28;19924;-33
2022/11/11 09:20:49;;;;;;;;;;;;;;;7.58;73.91;102324.28;5047692;28;20336;-33
2022/11/11 09:23:14;;;;;;;;;;;;;;;7.61;73.79;102319.13;5031213;28;20015;-33
2022/11/11 09:25:39;;;;;;;;;;;;;;;7.64;73.81;102316.56;5053097;28;19917;-33
2022/11/11 09:28:05;;;;;;;;;;;;;;;7.68;73.83;102325.44;5051573;28;19924;-32
2022/11/11 09:30:30;;;;;;;;;;;;;;;7.72;73.82;102337.81;5031660;28;19920;-33
2022/11/11 09:33:00;;;;;;;;;;;;;;;7.74;73.83;102336.09;5044247;28;19976;-33
2022/11/11 09:35:25;;;;;;;;;;;;;;;7.77;73.83;102344.09;5035034;28;19920;-33
2022/11/11 09:37:54;;;;;;;;;;;;;;;7.80;73.84;102341.56;5051038;28;19913;-33
2022/11/11 09:40:20;;;;;;;;;;;;;;;7.85;73.69;102344.31;5049035;28;19985;-33
2022/11/11 09:42:52;;;;;;;;;;;;;;;7.88;73.89;102351.41;5050799;28;20463;-32
2022/11/11 09:45:19;;;;;;;;;;;;;;;7.91;74.00;102355.00;5049193;28;19924;-32
2022/11/11 09:47:58;;;;;;;;;;;;;;;7.94;73.88;102352.47;5035218;28;19928;-33
2022/11/11 09:50:25;;;;;;;;;;;;;;;7.99;73.97;102351.69;5057527;28;20547;-33
2022/11/11 09:52:50;;;;;;;;;;;;;;;8.02;74.01;102357.94;5029735;28;19917;-33
2022/11/11 09:55:15;;;;;;;;;;;;;;;8.04;74.09;102356.22;5031713;28;20446;-33
2022/11/11 09:57:43;;;;;;;;;;;;;;;8.08;74.08;102360.72;5035752;28;19928;-31
2022/11/11 10:00:14;;;;;;;;;;;;;;;8.13;73.85;102365.25;5025602;28;19925;-31
2022/11/11 10:02:45;;;;;;;;;;;;;;;8.17;74.14;102377.63;5050082;28;19917;-31
2022/11/11 10:05:14;;;;;;;;;;;;;;;8.23;74.63;102376.91;5050941;28;19917;-31
2022/11/11 10:07:48;;;;;;;;;;;;;;;8.27;74.97;102384.91;5044046;28;20448;-31
2022/11/11 10:10:13;;;;;;;;;;;;;;;8.33;75.24;102373.69;5043613;28;19925;-31
2022/11/11 10:12:40;;;;;;;;;;;;;;;8.39;75.35;102372.94;5045612;28;19925;-31
2022/11/11 10:15:10;;;;;;;;;;;;;;;8.43;75.61;102370.47;5042415;28;19922;-31
2022/11/11 10:17:56;;;;;;;;;;;;;;;8.49;75.56;102367.09;5018381;28;19927;-31
2022/11/11 10:20:25;;;;;;;;;;;;;;;8.55;75.95;102363.78;5047295;28;20282;-31
2022/11/11 10:22:52;;;;;;;;;;;;;;;8.63;76.20;102364.00;5027809;28;19924;-31
2022/11/11 10:25:22;;;;;;;;;;;;;;;8.68;76.53;102362.38;5047230;28;19924;-32
2022/11/11 10:27:48;;;;;;;;;;;;;;;8.74;76.52;102362.53;5031397;28;20031;-33
2022/11/11 10:30:26;;;;;;;;;;;;;;;8.80;76.71;102370.56;5029932;28;20397;-32
2022/11/11 10:33:08;;;;;;;;;;;;;;;8.87;76.45;102370.72;5029987;28;19924;-33
2022/11/11 10:35:34;;;;;;;;;;;;;;;8.93;76.27;102366.50;5045124;28;19925;-35
2022/11/11 10:38:04;;;;;;;;;;;;;;;9.00;76.39;102369.31;5031014;28;19966;-32
2022/11/11 10:40:49;;;;;;;;;;;;;;;9.06;76.66;102372.06;5048964;28;20183;-32
2022/11/11 10:43:20;;;;;;;;;;;;;;;9.14;76.57;102370.50;5032371;28;20378;-32
2022/11/11 10:45:46;;;;;;;;;;;;;;;9.21;77.26;102368.94;5049693;28;20007;-33
2022/11/11 10:48:12;;;;;;;;;;;;;;;9.28;77.59;102364.69;5046070;28;20003;-33
2022/11/11 10:50:39;;;;;;;;;;;;;;;9.33;77.36;102370.94;5041929;28;20419;-32
2022/11/11 10:53:04;;;;;;;;;;;;;;;9.36;76.43;102371.94;5039900;28;19925;-33
2022/11/11 10:55:32;;;;;;;;;;;;;;;9.41;76.06;102373.78;5039020;28;20309;-33
2022/11/11 10:58:11;;;;;;;;;;;;;;;9.45;76.23;102373.91;5029473;28;19917;-33
2022/11/11 11:00:36;;;;;;;;;;;;;;;9.51;76.00;102381.03;5032601;28;19917;-32
2022/11/11 11:03:15;;;;;;;;;;;;;;;9.55;75.70;102374.09;5044585;28;19978;-33
2022/11/11 11:05:46;;;;;;;;;;;;;;;9.60;75.60;102372.44;5045596;28;19917;-32
2022/11/11 11:08:13;;;;;;;;;;;;;;;9.64;75.85;102376.94;5045799;28;19929;-32
2022/11/11 11:10:58;;;;;;;;;;;;;;;9.68;75.32;102367.34;5008316;28;20461;-33
2022/11/11 11:13:42;;;;;;;;;;;;;;;9.74;75.61;102378.03;5041409;28;19917;-33
2022/11/11 11:16:09;;;;;;;;;;;;;;;9.79;75.51;102365.84;5046611;28;20353;-33
2022/11/11 11:18:35;;;;;;;;;;;;;;;9.84;75.54;102355.41;5046636;28;19963;-33
2022/11/11 11:21:01;;;;;;;;;;;;;;;9.92;75.87;102363.44;5031122;28;19948;-33
2022/11/11 11:23:45;;;;;;;;;;;;;;;9.99;75.61;102360.09;5028942;28;19963;-33
2022/11/11 11:26:11;;;;;;;;;;;;;;;10.07;75.97;102355.84;5045225;28;19917;-33
2022/11/11 11:28:57;;;;;;;;;;;;;;;10.13;75.95;102366.53;5028443;28;20680;-33
2022/11/11 11:31:35;;;;;;;;;;;;;;;10.24;76.88;102355.31;5047960;28;19921;-31
2022/11/11 11:34:01;;;;;;;;;;;;;;;10.31;76.53;102365.13;5031079;28;20051;-31
2022/11/11 11:36:26;;;;;;;;;;;;;;;10.39;77.20;102366.16;5046080;28;20000;-31
2022/11/11 11:38:51;;;;;;;;;;;;;;;10.48;77.70;102367.22;5050137;28;19916;-31
2022/11/11 11:41:18;;;;;;;;;;;;;;;10.55;77.23;102357.66;5046810;28;20289;-31
2022/11/11 11:43:44;;;;;;;;;;;;;;;10.63;77.57;102359.59;5045863;28;20374;-31
2022/11/11 11:46:29;;;;;;;;;;;;;;;10.74;78.81;102354.47;5029641;28;20262;-31
2022/11/11 11:48:58;;;;;;;;;;;;;;;10.87;79.57;102345.03;5028034;28;20037;-31
2022/11/11 11:51:34;;;;;;;;;;;;;;;10.98;79.64;102350.50;5046018;28;20411;-31
2022/11/11 11:53:59;;;;;;;;;;;;;;;11.13;80.13;102357.75;5032304;28;21641;-31
2022/11/11 11:56:25;;;;;;;;;;;;;;;11.19;79.08;102351.69;5045555;28;20274;-33
2022/11/11 11:58:53;;;;;;;;;;;;;;;11.34;79.27;102351.00;5043583;28;20056;-32
2022/11/11 12:01:30;;;;;;;;;;;;;;;11.45;78.54;102352.94;5045073;28;19947;-32
2022/11/11 12:04:02;;;;;;;;;;;;;;;11.58;77.87;102349.59;5042466;28;20011;-33
2022/11/11 12:06:33;;;;;;;;;;;;;;;11.67;77.49;102352.34;5048726;28;19920;-32
2022/11/11 12:09:15;;;;;;;;;;;;;;;11.75;76.32;102351.56;5043919;28;20008;-34
2022/11/11 12:11:49;;;;;;;;;;;;;;;11.82;75.49;102345.50;5031647;28;19931;-32
2022/11/11 12:14:18;;;;;;;;;;;;;;;11.88;75.12;102340.31;5046817;28;19920;-31
2022/11/11 12:16:49;;;;;;;;;;;;;;;11.97;74.75;102331.56;5033673;28;19921;-32
2022/11/11 12:19:21;;;;;;;;;;;;;;;12.02;74.55;102339.56;5034721;28;20366;-31
2022/11/11 12:22:01;;;;;;;;;;;;;;;12.09;74.73;102335.25;5046244;28;19921;-31
2022/11/11 12:24:30;;;;;;;;;;;;;;;12.21;74.90;102329.22;5043522;28;20378;-32
2022/11/11 12:27:09;;;;;;;;;;;;;;;12.25;74.54;102328.38;5035331;28;19920;-31
2022/11/11 12:29:53;;;;;;;;;;;;;;;12.31;74.25;102331.09;5051472;28;20297;-31
2022/11/11 12:32:37;;;;;;;;;;;;;;;12.37;74.19;102325.84;5052558;28;20302;-31
2022/11/11 12:35:05;;;;;;;;;;;;;;;12.45;74.13;102312.72;5051056;28;20385;-31
2022/11/11 12:37:37;;;;;;;;;;;;;;;12.52;74.19;102305.72;5051398;28;20438;-31
2022/11/11 12:40:18;;;;;;;;;;;;;;;12.60;73.80;102300.50;5040921;28;19967;-31
2022/11/11 12:42:59;;;;;;;;;;;;;;;12.65;73.73;102304.97;5045273;28;20007;-31
2022/11/11 12:45:27;;;;;;;;;;;;;;;12.73;73.75;102299.72;5048830;28;20293;-32
2022/11/11 12:47:52;;;;;;;;;;;;;;;12.81;73.98;102302.44;5034185;28;19916;-33
2022/11/11 12:50:17;;;;;;;;;;;;;;;12.87;73.75;102299.81;5047605;28;19931;-32
2022/11/11 12:53:01;;;;;;;;;;;;;;;12.93;73.90;102294.56;5050654;28;19979;-32
2022/11/11 12:55:50;;;;;;;;;;;;;;;13.03;73.82;102291.97;5045861;28;19916;-31
2022/11/11 12:58:15;;;;;;;;;;;;;;;13.12;74.10;102294.69;5048186;28;20090;-31
2022/11/11 13:00:52;;;;;;;;;;;;;;;13.20;73.70;102292.97;5042362;28;20546;-31
2022/11/11 13:03:31;;;;;;;;;;;;;;;13.30;73.69;102293.00;5048902;28;19920;-31
2022/11/11 13:05:57;;;;;;;;;;;;;;;13.38;73.55;102288.66;5027914;28;19966;-31
2022/11/11 13:08:41;;;;;;;;;;;;;;;13.45;73.06;102286.91;5049556;28;19921;-31
2022/11/11 13:11:06;;;;;;;;;;;;;;;13.51;72.95;102283.44;5050521;28;19925;-31
2022/11/11 13:13:37;;;;;;;;;;;;;;;13.57;72.59;102291.44;5029618;28;19943;-32
2022/11/11 13:16:03;;;;;;;;;;;;;;;13.63;72.50;102278.19;5053103;28;19962;-33
2022/11/11 13:18:30;;;;;;;;;;;;;;;13.68;72.25;102279.13;5052814;28;19928;-32
2022/11/11 13:20:56;;;;;;;;;;;;;;;13.73;72.00;102279.09;5038596;28;20409;-32
2022/11/11 13:23:21;;;;;;;;;;;;;;;13.80;72.13;102280.00;5027755;28;20057;-31
2022/11/11 13:25:47;;;;;;;;;;;;;;;13.87;71.56;102278.28;5042202;28;20011;-32
2022/11/11 13:28:13;;;;;;;;;;;;;;;13.91;71.36;102282.72;5032813;28;19924;-32
2022/11/11 13:30:43;;;;;;;;;;;;;;;13.96;71.51;102283.59;5054306;28;19927;-32
2022/11/11 13:33:20;;;;;;;;;;;;;;;14.01;71.18;102279.22;5037794;28;19917;-33
2022/11/11 13:35:47;;;;;;;;;;;;;;;14.06;70.58;102273.88;5053889;28;19932;-31
2022/11/11 13:38:21;;;;;;;;;;;;;;;14.10;70.54;102281.88;5052039;28;19917;-31
2022/11/11 13:40:47;;;;;;;;;;;;;;;14.13;69.76;102288.94;5052773;28;20362;-31
2022/11/11 13:43:32;;;;;;;;;;;;;;;14.14;69.73;102293.34;5050343;28;19916;-31
2022/11/11 13:45:57;;;;;;;;;;;;;;;14.16;69.69;102288.06;5029937;28;19916;-31
2022/11/11 13:48:26;;;;;;;;;;;;;;;14.18;70.06;102289.84;5047675;28;19971;-31
2022/11/11 13:50:52;;;;;;;;;;;;;;;14.19;69.83;102294.25;5052744;28;19921;-31
2022/11/11 13:53:27;;;;;;;;;;;;;;;14.21;69.86;102300.44;5033366;28;19921;-31
2022/11/11 13:55:53;;;;;;;;;;;;;;;14.21;69.75;102289.81;5049242;28;20377;-32
2022/11/11 13:58:22;;;;;;;;;;;;;;;14.21;69.48;102295.13;5052167;28;20014;-32
2022/11/11 14:00:47;;;;;;;;;;;;;;;14.23;69.75;102301.34;5034707;28;20270;-32
2022/11/11 14:03:13;;;;;;;;;;;;;;;14.23;69.41;102304.00;5034464;28;19917;-32